Time;durP1;ratioP1;P1;durP2;ratioP2;P2;SDS_P1;SDS_P2;PMS_P1;PMS_P2;Temp;Humidity;BMP_temperature;BMP_pressure;BME280_temperature;BME280_humidity;BME280_pressure;Samples;Min_cycle;Max_cycle;Signal;HPM_P1;HPM_P2
2022/05/03 00:04:26;;;;;;;10.00;6.82;;;3.40;99.90;;;;;;5051316;28;20050;-46
2022/05/03 00:07:24;;;;;;;10.65;6.82;;;3.40;99.90;;;;;;5069810;28;20488;-44
2022/05/03 00:10:11;;;;;;;11.18;7.30;;;3.40;99.90;;;;;;5069636;28;20650;-44
2022/05/03 00:13:09;;;;;;;13.35;7.22;;;3.40;99.90;;;;;;5069819;28;20479;-44
2022/05/03 00:15:38;;;;;;;13.75;8.45;;;3.30;99.90;;;;;;5069645;28;20499;-44
2022/05/03 00:18:06;;;;;;;11.32;7.95;;;3.20;99.90;;;;;;5069452;28;20044;-43
2022/05/03 00:20:33;;;;;;;10.02;7.22;;;3.10;99.90;;;;;;5069734;28;20079;-43
2022/05/03 00:23:00;;;;;;;14.70;7.93;;;3.20;99.90;;;;;;5068196;28;20582;-43
2022/05/03 00:25:27;;;;;;;11.38;8.02;;;3.10;99.90;;;;;;5069584;28;20049;-43
2022/05/03 00:27:53;;;;;;;12.00;7.20;;;3.10;99.90;;;;;;5069976;28;20044;-44
2022/05/03 00:30:19;;;;;;;12.13;7.70;;;3.00;99.90;;;;;;5069916;28;20040;-44
2022/05/03 00:32:47;;;;;;;14.18;7.20;;;3.00;99.90;;;;;;5070377;28;20042;-45
2022/05/03 00:35:14;;;;;;;11.63;8.32;;;2.90;99.90;;;;;;5070047;28;20110;-44
2022/05/03 00:37:39;;;;;;;14.15;7.93;;;2.90;99.90;;;;;;5069803;28;20757;-43
2022/05/03 00:40:06;;;;;;;14.45;7.70;;;2.90;99.90;;;;;;5069306;28;20162;-45
2022/05/03 00:42:46;;;;;;;9.15;6.63;;;2.90;99.90;;;;;;5069647;28;20379;-44
2022/05/03 00:45:58;;;;;;;11.30;6.45;;;2.90;99.90;;;;;;5069230;28;20078;-44
2022/05/03 00:49:08;;;;;;;10.48;6.15;;;2.90;99.90;;;;;;5069268;28;20552;-44
2022/05/03 00:51:49;;;;;;;10.95;7.28;;;2.90;99.90;;;;;;5069386;28;20049;-45
2022/05/03 00:54:17;;;;;;;13.02;7.13;;;2.90;99.90;;;;;;5069218;28;20044;-45
2022/05/03 00:57:25;;;;;;;10.95;7.30;;;2.90;99.90;;;;;;5069058;28;20475;-44
2022/05/03 00:59:57;;;;;;;10.95;7.05;;;2.90;99.90;;;;;;5069306;28;20149;-44
2022/05/03 01:02:34;;;;;;;12.02;6.72;;;2.80;99.90;;;;;;5069417;28;20044;-44
2022/05/03 01:05:10;;;;;;;12.07;7.47;;;2.80;99.90;;;;;;5068659;28;20153;-44
2022/05/03 01:08:02;;;;;;;14.20;7.80;;;3.00;99.90;;;;;;5069295;28;20048;-47
2022/05/03 01:10:50;;;;;;;15.17;7.70;;;2.70;99.90;;;;;;5070832;28;20056;-45
2022/05/03 01:13:31;;;;;;;13.10;8.20;;;2.60;99.90;;;;;;5068042;28;20060;-46
2022/05/03 01:16:05;;;;;;;14.13;7.63;;;2.60;99.90;;;;;;5068121;28;20483;-47
2022/05/03 01:18:39;;;;;;;14.32;8.52;;;2.60;99.90;;;;;;5069146;28;20156;-46
2022/05/03 01:21:05;;;;;;;13.65;8.95;;;2.50;99.90;;;;;;5068870;28;20166;-47
2022/05/03 01:23:52;;;;;;;11.85;7.55;;;2.50;99.90;;;;;;5068984;28;20526;-45
2022/05/03 01:26:20;;;;;;;16.27;8.30;;;2.40;99.90;;;;;;5068864;28;20048;-48
2022/05/03 01:29:01;;;;;;;12.75;8.00;;;2.40;99.90;;;;;;5068921;28;20040;-43
2022/05/03 01:31:28;;;;;;;11.98;7.50;;;2.40;99.90;;;;;;5068953;28;20043;-43
2022/05/03 01:33:59;;;;;;;13.23;7.70;;;2.40;99.90;;;;;;5069037;28;20428;-44
2022/05/03 01:36:45;;;;;;;13.10;7.30;;;2.30;99.90;;;;;;5068602;28;20448;-45
2022/05/03 01:39:23;;;;;;;10.90;6.97;;;2.30;99.90;;;;;;5068610;28;20044;-44
2022/05/03 01:42:12;;;;;;;13.43;7.35;;;2.20;99.90;;;;;;5068648;28;20047;-44
2022/05/03 01:44:56;;;;;;;12.98;8.05;;;2.20;99.90;;;;;;5070697;28;20131;-44
2022/05/03 01:47:50;;;;;;;13.98;8.85;;;2.20;99.90;;;;;;5068645;28;20052;-43
2022/05/03 01:50:33;;;;;;;15.13;8.65;;;2.20;99.90;;;;;;5068276;28;20071;-46
2022/05/03 01:53:21;;;;;;;16.35;9.18;;;2.20;99.90;;;;;;5068367;28;20052;-45
2022/05/03 01:55:46;;;;;;;16.52;9.15;;;2.20;99.90;;;;;;5067891;28;20118;-43
2022/05/03 01:58:49;;;;;;;12.48;8.10;;;2.20;99.90;;;;;;5067702;28;20041;-43
2022/05/03 02:01:22;;;;;;;18.90;9.05;;;2.20;99.90;;;;;;5067730;28;20178;-44
2022/05/03 02:03:49;;;;;;;19.27;9.85;;;2.20;99.90;;;;;;5068395;28;20044;-44
2022/05/03 02:06:20;;;;;;;16.42;8.73;;;2.20;99.90;;;;;;5067838;28;20087;-44
2022/05/03 02:09:04;;;;;;;17.70;9.75;;;2.20;99.90;;;;;;5068198;28;20501;-43
2022/05/03 02:11:55;;;;;;;15.48;9.10;;;2.40;99.90;;;;;;5068381;28;20455;-45
2022/05/03 02:14:45;;;;;;;17.33;10.23;;;2.20;99.90;;;;;;5067442;28;20052;-45
2022/05/03 02:17:34;;;;;;;16.83;8.68;;;2.40;99.90;;;;;;5068391;28;20063;-44
2022/05/03 02:20:37;;;;;;;16.55;9.43;;;2.20;99.90;;;;;;5068328;28;20549;-44
2022/05/03 02:23:13;;;;;;;18.70;9.68;;;2.30;99.90;;;;;;5068405;28;20124;-44
2022/05/03 02:26:03;;;;;;;20.60;10.43;;;2.30;99.90;;;;;;5069918;28;20067;-43
2022/05/03 02:28:55;;;;;;;15.95;9.63;;;2.20;99.90;;;;;;5070354;28;20045;-43
2022/05/03 02:31:35;;;;;;;19.73;10.05;;;2.10;99.90;;;;;;5071944;28;20041;-45
2022/05/03 02:34:11;;;;;;;21.27;10.98;;;2.10;99.90;;;;;;5071986;28;20174;-46
2022/05/03 02:36:43;;;;;;;21.88;10.93;;;2.20;99.90;;;;;;5071917;28;20483;-44
2022/05/03 02:39:12;;;;;;;18.50;11.07;;;2.20;99.90;;;;;;5072049;28;20048;-44
2022/05/03 02:41:39;;;;;;;23.38;12.10;;;2.30;99.90;;;;;;5070467;28;20582;-44
2022/05/03 02:44:05;;;;;;;22.80;11.77;;;2.20;99.90;;;;;;5071556;28;20037;-44
2022/05/03 02:46:46;;;;;;;22.05;11.55;;;2.20;99.90;;;;;;5071091;28;20048;-43
2022/05/03 02:49:18;;;;;;;19.33;10.40;;;2.10;99.90;;;;;;5071188;28;20551;-44
2022/05/03 02:52:24;;;;;;;19.45;11.10;;;2.20;99.90;;;;;;5071757;28;20127;-45
2022/05/03 02:55:08;;;;;;;17.58;10.07;;;2.00;99.90;;;;;;5048776;28;20394;-44
2022/05/03 02:58:05;;;;;;;22.02;12.13;;;2.10;99.90;;;;;;5070297;28;20060;-45
2022/05/03 03:03:47;;;;;;;31.27;14.88;;;2.10;99.90;;;;;;5070984;28;20091;-44
2022/05/03 03:06:24;;;;;;;24.92;12.48;;;1.90;99.90;;;;;;5070575;28;20071;-44
2022/05/03 03:08:54;;;;;;;23.17;12.00;;;2.00;99.90;;;;;;5070922;28;20372;-44
2022/05/03 03:11:37;;;;;;;24.98;13.45;;;2.10;99.90;;;;;;5070338;28;20098;-43
2022/05/03 03:14:15;;;;;;;25.83;14.13;;;2.00;99.90;;;;;;5071181;28;20041;-44
2022/05/03 03:17:02;;;;;;;26.23;14.32;;;2.20;99.90;;;;;;5070861;28;20118;-43
2022/05/03 03:19:59;;;;;;;27.80;13.93;;;2.10;99.90;;;;;;5071738;28;20036;-45
2022/05/03 03:22:30;;;;;;;21.20;12.50;;;2.00;99.90;;;;;;5071331;28;20049;-44
2022/05/03 03:24:58;;;;;;;25.05;13.25;;;2.00;99.90;;;;;;5071559;28;20502;-44
2022/05/03 03:27:26;;;;;;;26.00;13.88;;;2.10;99.90;;;;;;5071238;28;20048;-44
2022/05/03 03:29:55;;;;;;;27.13;13.63;;;2.00;99.90;;;;;;5071854;28;20047;-44
2022/05/03 03:32:25;;;;;;;22.80;12.85;;;1.90;99.90;;;;;;5071280;28;20048;-43
2022/05/03 03:34:55;;;;;;;16.73;10.00;;;2.00;99.90;;;;;;5071431;28;20043;-44
2022/05/03 03:37:27;;;;;;;21.95;11.82;;;1.80;99.90;;;;;;5068611;28;20075;-44
2022/05/03 03:39:52;;;;;;;18.90;11.25;;;2.00;99.90;;;;;;5071177;28;20040;-43
2022/05/03 03:42:19;;;;;;;17.42;10.93;;;1.90;99.90;;;;;;5071210;28;20068;-43
2022/05/03 03:44:46;;;;;;;15.95;9.18;;;1.90;99.90;;;;;;5070355;28;20048;-43
2022/05/03 03:47:13;;;;;;;15.07;8.80;;;1.90;99.90;;;;;;5070268;28;20126;-44
2022/05/03 03:49:39;;;;;;;23.60;10.43;;;1.90;99.90;;;;;;5070191;28;20090;-44
2022/05/03 03:52:09;;;;;;;16.90;9.35;;;1.90;99.90;;;;;;5070891;28;20045;-44
2022/05/03 03:54:36;;;;;;;17.27;9.52;;;2.00;99.90;;;;;;5070906;28;20437;-43
2022/05/03 03:57:04;;;;;;;14.95;9.63;;;2.10;99.90;;;;;;5070510;28;20037;-43
2022/05/03 03:59:31;;;;;;;21.20;10.77;;;2.10;99.90;;;;;;5070019;28;20076;-43
2022/05/03 04:02:01;;;;;;;21.50;10.80;;;2.30;99.90;;;;;;5069665;28;20048;-43
2022/05/03 04:04:32;;;;;;;25.30;13.93;;;2.60;99.90;;;;;;5069431;28;20455;-43
2022/05/03 04:06:59;;;;;;;29.67;15.10;;;2.50;99.90;;;;;;5069786;28;20166;-44
2022/05/03 04:09:25;;;;;;;28.45;15.65;;;2.70;99.90;;;;;;5069316;28;20403;-43
2022/05/03 04:11:51;;;;;;;27.40;15.57;;;2.70;99.90;;;;;;5069686;28;20071;-44
2022/05/03 04:14:17;;;;;;;25.70;15.05;;;2.80;99.90;;;;;;5069684;28;20048;-47
2022/05/03 04:16:42;;;;;;;31.13;18.42;;;2.90;99.90;;;;;;5069024;28;20091;-45
2022/05/03 04:19:11;;;;;;;28.10;15.30;;;3.20;99.90;;;;;;5069949;28;20040;-45
2022/05/03 04:21:37;;;;;;;29.17;16.75;;;3.20;99.90;;;;;;5069504;28;20036;-44
2022/05/03 04:24:03;;;;;;;30.50;17.25;;;3.10;99.90;;;;;;5069893;28;20048;-45
2022/05/03 04:26:28;;;;;;;26.40;16.88;;;3.10;99.90;;;;;;5069445;28;20051;-44
2022/05/03 04:28:58;;;;;;;29.85;18.58;;;3.20;99.90;;;;;;5069703;28;20466;-46
2022/05/03 04:31:27;;;;;;;30.00;18.00;;;3.50;99.90;;;;;;5069999;28;20046;-45
2022/05/03 04:33:54;;;;;;;26.65;17.05;;;3.20;99.90;;;;;;5069607;28;20079;-45
2022/05/03 04:36:21;;;;;;;31.55;18.52;;;3.40;99.90;;;;;;5070169;28;20116;-44
2022/05/03 04:38:48;;;;;;;33.95;18.50;;;3.40;99.90;;;;;;5069830;28;20097;-44
2022/05/03 04:41:14;;;;;;;29.20;18.67;;;3.50;99.90;;;;;;5070264;28;20044;-44
2022/05/03 04:43:39;;;;;;;32.40;18.60;;;3.50;99.90;;;;;;5069676;28;20092;-45
2022/05/03 04:46:05;;;;;;;29.45;18.48;;;3.60;99.90;;;;;;5069947;28;20463;-44
2022/05/03 04:48:31;;;;;;;33.17;20.13;;;3.80;99.90;;;;;;5069334;28;20585;-44
2022/05/03 04:50:56;;;;;;;31.70;18.80;;;3.80;99.90;;;;;;5069714;28;20052;-43
2022/05/03 04:53:22;;;;;;;32.72;19.33;;;4.00;99.90;;;;;;5069121;28;20037;-47
2022/05/03 04:55:49;;;;;;;34.92;19.90;;;4.10;99.90;;;;;;5069245;28;20068;-46
2022/05/03 04:58:15;;;;;;;34.85;19.95;;;4.20;99.90;;;;;;5069406;28;20041;-44
2022/05/03 05:00:41;;;;;;;34.97;20.77;;;4.40;99.90;;;;;;5069376;28;20048;-45
2022/05/03 05:03:07;;;;;;;30.10;19.83;;;4.50;99.90;;;;;;5069566;28;20052;-46
2022/05/03 05:05:32;;;;;;;36.60;21.02;;;4.70;99.90;;;;;;5069305;28;20059;-44
2022/05/03 05:08:03;;;;;;;33.78;21.17;;;4.90;99.90;;;;;;5069233;28;20051;-45
2022/05/03 05:10:31;;;;;;;33.35;22.10;;;5.00;99.90;;;;;;5069873;28;20041;-44
2022/05/03 05:12:59;;;;;;;37.55;21.58;;;5.30;99.90;;;;;;5069033;28;20048;-47
2022/05/03 05:15:26;;;;;;;34.55;21.17;;;5.50;99.90;;;;;;5068425;28;20044;-45
2022/05/03 05:17:56;;;;;;;34.58;21.25;;;5.60;99.90;;;;;;5067961;28;20649;-44
2022/05/03 05:20:23;;;;;;;29.42;22.55;;;5.70;99.90;;;;;;5069250;28;20438;-48
2022/05/03 05:22:49;;;;;;;34.80;22.60;;;6.00;99.90;;;;;;5068927;28;20082;-44
2022/05/03 05:25:14;;;;;;;35.45;22.77;;;6.20;99.90;;;;;;5067425;28;20044;-46
2022/05/03 05:27:41;;;;;;;37.20;22.38;;;6.30;99.90;;;;;;5068780;28;20040;-44
2022/05/03 05:30:08;;;;;;;29.98;21.52;;;7.10;99.90;;;;;;5068633;28;20044;-45
2022/05/03 05:32:37;;;;;;;37.00;22.13;;;6.40;99.90;;;;;;5068596;28;20036;-45
2022/05/03 05:35:06;;;;;;;31.38;21.17;;;6.80;99.90;;;;;;5068855;28;20126;-44
2022/05/03 05:37:32;;;;;;;32.22;21.42;;;6.70;99.90;;;;;;5068515;28;20036;-46
2022/05/03 05:39:58;;;;;;;33.50;21.55;;;7.00;99.90;;;;;;5068338;28;20049;-45
2022/05/03 05:42:23;;;;;;;31.58;21.30;;;7.20;99.90;;;;;;5068094;28;20395;-45
2022/05/03 05:44:49;;;;;;;31.02;20.92;;;7.20;99.90;;;;;;5067721;28;20047;-44
2022/05/03 05:47:17;;;;;;;28.77;21.98;;;7.80;99.90;;;;;;5068422;28;20101;-45
2022/05/03 05:49:42;;;;;;;28.90;20.20;;;7.50;99.90;;;;;;5068077;28;20044;-45
2022/05/03 05:54:52;;;;;;;31.58;22.63;;;8.20;99.90;;;;;;5066444;28;20428;-45
2022/05/03 05:57:18;;;;;;;33.75;22.27;;;8.30;99.90;;;;;;5068723;28;20040;-44
2022/05/03 05:59:43;;;;;;;30.80;21.92;;;8.50;99.90;;;;;;5068451;28;20044;-44
2022/05/03 06:02:09;;;;;;;33.97;24.48;;;8.50;99.90;;;;;;5072619;28;20080;-44
2022/05/03 06:04:35;;;;;;;35.85;24.50;;;8.80;99.90;;;;;;5072306;28;20052;-46
2022/05/03 06:07:00;;;;;;;31.35;23.20;;;9.30;99.90;;;;;;5072124;28;20542;-44
2022/05/03 06:09:26;;;;;;;34.40;23.83;;;9.00;99.90;;;;;;5087594;28;20072;-44
2022/05/03 06:11:52;;;;;;;35.33;24.42;;;9.00;99.90;;;;;;5072014;28;20555;-44
2022/05/03 06:14:18;;;;;;;36.45;24.70;;;9.50;99.90;;;;;;5072359;28;20391;-45
2022/05/03 06:16:50;;;;;;;35.65;23.85;;;9.30;99.90;;;;;;5071143;28;20057;-44
2022/05/03 06:19:16;;;;;;;35.00;24.65;;;8.90;99.90;;;;;;5070139;28;20468;-46
2022/05/03 06:21:42;;;;;;;36.08;24.92;;;9.00;99.90;;;;;;5071700;28;20087;-47
2022/05/03 06:24:08;;;;;;;33.78;24.10;;;9.60;99.90;;;;;;5071721;28;20132;-45
2022/05/03 06:26:34;;;;;;;35.15;25.33;;;9.40;99.90;;;;;;5072006;28;20410;-44
2022/05/03 06:29:06;;;;;;;33.35;25.02;;;9.00;99.90;;;;;;5071433;28;20402;-44
2022/05/03 06:31:33;;;;;;;37.47;25.85;;;9.60;99.90;;;;;;5071486;28;20043;-45
2022/05/03 06:33:59;;;;;;;34.92;24.70;;;10.10;99.90;;;;;;5070970;28;20048;-44
2022/05/03 06:36:25;;;;;;;34.17;24.73;;;9.80;99.90;;;;;;5071650;28;20127;-45
2022/05/03 06:38:51;;;;;;;37.63;26.38;;;9.60;99.90;;;;;;5071242;28;20037;-44
2022/05/03 06:41:17;;;;;;;38.20;26.58;;;10.10;99.90;;;;;;5071872;28;20044;-45
2022/05/03 06:43:42;;;;;;;39.90;26.67;;;10.20;99.90;;;;;;5071918;28;20044;-45
2022/05/03 06:46:09;;;;;;;37.30;26.35;;;10.10;99.90;;;;;;5071541;28;20049;-46
2022/05/03 06:48:35;;;;;;;39.70;26.17;;;9.80;99.90;;;;;;5071752;28;20479;-48
2022/05/03 06:51:00;;;;;;;42.88;27.10;;;10.20;99.90;;;;;;5071866;28;20040;-44
2022/05/03 06:53:26;;;;;;;42.38;28.08;;;10.10;99.90;;;;;;5071893;28;20143;-44
2022/05/03 06:55:52;;;;;;;41.53;26.63;;;10.40;99.90;;;;;;5071794;28;20040;-45
2022/05/03 06:58:17;;;;;;;39.00;27.25;;;10.00;99.90;;;;;;5071886;28;20140;-46
2022/05/03 07:00:43;;;;;;;36.72;26.95;;;10.60;99.90;;;;;;5071365;28;20446;-46
2022/05/03 07:03:09;;;;;;;37.78;27.05;;;10.50;99.90;;;;;;5070678;28;20291;-44
2022/05/03 07:05:35;;;;;;;43.30;28.08;;;10.50;99.90;;;;;;5070482;28;20064;-44
2022/05/03 07:08:01;;;;;;;37.55;26.98;;;10.20;99.90;;;;;;5070749;28;20044;-44
2022/05/03 07:10:26;;;;;;;41.95;27.40;;;11.00;99.90;;;;;;5071384;28;20041;-45
2022/05/03 07:12:52;;;;;;;42.33;28.17;;;10.30;99.90;;;;;;5071276;28;20043;-45
2022/05/03 07:15:18;;;;;;;42.13;28.88;;;10.40;99.90;;;;;;5071271;28;20051;-44
2022/05/03 07:23:15;;;;;;;34.97;23.15;;;10.80;99.90;;;;;;5070529;28;20056;-44
2022/05/03 07:25:41;;;;;;;34.13;24.33;;;10.60;99.90;;;;;;5070302;28;20119;-44
2022/05/03 07:28:07;;;;;;;32.28;22.38;;;10.30;99.90;;;;;;5070845;28;20041;-48
2022/05/03 07:30:36;;;;;;;25.98;17.73;;;10.40;99.90;;;;;;5070050;28;20045;-45
2022/05/03 07:33:02;;;;;;;28.52;18.90;;;10.50;99.90;;;;;;5068685;28;20040;-43
2022/05/03 07:35:28;;;;;;;27.65;18.13;;;10.60;99.90;;;;;;5067637;28;20051;-53
2022/05/03 07:37:54;;;;;;;24.42;15.43;;;11.40;99.90;;;;;;5068177;28;20037;-47
2022/05/03 07:40:20;;;;;;;21.02;13.70;;;10.60;99.90;;;;;;5070392;28;20040;-49
2022/05/03 07:42:46;;;;;;;22.05;12.80;;;10.60;99.90;;;;;;5070291;28;20037;-43
2022/05/03 07:45:15;;;;;;;18.63;11.48;;;10.40;99.90;;;;;;5047168;28;20084;-43
2022/05/03 07:47:41;;;;;;;13.40;7.50;;;10.60;99.90;;;;;;5069523;28;20045;-42
2022/05/03 07:50:07;;;;;;;12.23;4.90;;;10.70;99.90;;;;;;5068083;28;20032;-46
2022/05/03 07:52:35;;;;;;;8.77;4.18;;;10.70;99.90;;;;;;5069339;28;20121;-39
2022/05/03 07:55:02;;;;;;;13.23;4.95;;;10.90;99.90;;;;;;5069298;28;20757;-42
2022/05/03 07:57:28;;;;;;;15.80;5.38;;;10.90;99.90;;;;;;5069923;28;20535;-42
2022/05/03 07:59:54;;;;;;;15.35;5.95;;;11.00;99.90;;;;;;5069559;28;20046;-44
2022/05/03 08:02:24;;;;;;;15.98;6.45;;;11.10;99.90;;;;;;5069643;28;20058;-45
2022/05/03 08:04:51;;;;;;;10.10;4.38;;;11.20;99.90;;;;;;5068946;28;20060;-46
2022/05/03 08:07:18;;;;;;;10.13;3.97;;;11.30;99.90;;;;;;5068888;28;20051;-46
2022/05/03 08:09:45;;;;;;;8.68;3.58;;;11.50;99.90;;;;;;5068504;28;20534;-46
2022/05/03 08:12:11;;;;;;;9.25;3.88;;;11.50;99.90;;;;;;5068962;28;20554;-48
2022/05/03 08:14:37;;;;;;;10.02;3.72;;;12.40;99.90;;;;;;5067497;28;20036;-45
2022/05/03 08:17:04;;;;;;;13.27;2.92;;;12.20;99.90;;;;;;5068599;28;20052;-47
2022/05/03 08:19:45;;;;;;;8.70;2.95;;;11.90;99.90;;;;;;5051202;28;20048;-44
2022/05/03 08:22:11;;;;;;;10.50;3.78;;;11.80;99.90;;;;;;5069010;28;20045;-42
2022/05/03 08:24:46;;;;;;;13.73;3.78;;;12.20;99.90;;;;;;5069004;28;20040;-43
2022/05/03 08:27:13;;;;;;;15.07;4.18;;;12.20;99.90;;;;;;5067888;28;20561;-43
2022/05/03 08:29:38;;;;;;;12.23;3.88;;;12.00;99.90;;;;;;5069340;28;20369;-43
2022/05/03 08:32:05;;;;;;;15.45;3.42;;;12.10;99.90;;;;;;5068432;28;20051;-45
2022/05/03 08:34:31;;;;;;;12.60;3.85;;;12.20;99.90;;;;;;5068330;28;20040;-42
2022/05/03 08:42:27;;;;;;;10.80;3.60;;;12.30;99.90;;;;;;5068168;28;20063;-42
2022/05/03 08:44:53;;;;;;;10.98;4.15;;;12.40;99.90;;;;;;5068691;28;20086;-44
2022/05/03 08:47:20;;;;;;;9.52;2.85;;;12.60;99.90;;;;;;5068397;28;20566;-44
2022/05/03 08:50:02;;;;;;;16.23;4.30;;;12.70;99.90;;;;;;5068238;28;20076;-45
2022/05/03 08:52:59;;;;;;;12.20;3.97;;;12.60;99.90;;;;;;5069294;28;20101;-43
2022/05/03 08:55:25;;;;;;;15.88;4.05;;;12.50;99.90;;;;;;5068605;28;20060;-43
2022/05/03 08:57:51;;;;;;;19.70;4.10;;;12.60;99.90;;;;;;5069221;28;20037;-42
2022/05/03 09:00:19;;;;;;;17.60;4.80;;;12.50;99.90;;;;;;5068153;28;20597;-43
2022/05/03 09:02:51;;;;;;;17.17;4.22;;;12.40;99.90;;;;;;5068591;28;20068;-43
2022/05/03 09:05:18;;;;;;;17.92;5.15;;;12.30;99.90;;;;;;5068037;28;20887;-41
2022/05/03 09:07:51;;;;;;;16.63;6.00;;;12.40;99.90;;;;;;5068393;28;20044;-43
2022/05/03 09:10:21;;;;;;;21.38;5.63;;;12.40;99.90;;;;;;5067731;28;20060;-49
2022/05/03 09:12:49;;;;;;;17.92;4.95;;;12.40;99.90;;;;;;5068558;28;20041;-40
2022/05/03 09:15:15;;;;;;;18.80;6.22;;;12.40;99.90;;;;;;5068482;28;20130;-42
2022/05/03 09:17:46;;;;;;;17.90;5.93;;;12.30;99.90;;;;;;5066974;28;20574;-44
2022/05/03 09:26:25;;;;;;;25.15;5.90;;;12.30;99.90;;;;;;5067995;28;19920;-47
2022/05/03 09:29:01;;;;;;;20.77;5.80;;;12.20;99.90;;;;;;5068398;28;20221;-44
2022/05/03 09:31:52;;;;;;;31.33;6.68;;;12.20;99.90;;;;;;5068455;28;20051;-46
2022/05/03 09:34:23;;;;;;;18.33;4.68;;;12.20;99.90;;;;;;5067712;28;20037;-56
2022/05/03 09:36:54;;;;;;;18.58;3.95;;;12.20;99.90;;;;;;5070143;28;20121;-58
2022/05/03 09:39:43;;;;;;;18.10;4.07;;;12.20;99.90;;;;;;5069136;28;20044;-60
2022/05/03 09:42:12;;;;;;;21.40;4.47;;;12.40;99.90;;;;;;5067579;28;20056;-55
2022/05/03 09:44:50;;;;;;;17.30;3.70;;;12.50;99.90;;;;;;5068332;28;20072;-51
2022/05/03 09:47:16;;;;;;;19.02;3.47;;;12.70;99.90;;;;;;5067013;28;20045;-56
2022/05/03 09:49:45;;;;;;;14.25;2.90;;;12.80;99.90;;;;;;5082773;28;20086;-57
2022/05/03 09:52:27;;;;;;;18.13;3.78;;;13.00;99.90;;;;;;5066933;28;20423;-58
2022/05/03 09:54:55;;;;;;;;;;;13.20;99.90;;;;;;5068074;28;20045;-54
2022/05/03 09:57:25;;;;;;;12.15;2.13;;;14.00;99.90;;;;;;5066424;28;19927;-58
2022/05/03 09:59:53;;;;;;;14.45;2.40;;;13.50;99.90;;;;;;5068211;28;20036;-57
2022/05/03 10:02:21;;;;;;;12.30;2.50;;;13.50;99.90;;;;;;5068178;28;20040;-55
2022/05/03 10:04:49;;;;;;;15.75;3.10;;;13.30;99.90;;;;;;5067698;28;20064;-57
2022/05/03 10:07:15;;;;;;;11.40;1.90;;;14.00;99.90;;;;;;5067826;28;20048;-58
2022/05/03 10:09:43;;;;;;;9.38;2.38;;;14.20;99.90;;;;;;5068026;28;20044;-55
2022/05/03 10:12:11;;;;;;;13.05;3.35;;;14.60;99.40;;;;;;5066821;28;20498;-58
2022/05/03 10:14:41;;;;;;;7.63;2.13;;;14.50;99.70;;;;;;5067195;28;20086;-57
2022/05/03 10:23:04;;;;;;;13.10;2.10;;;15.00;95.30;;;;;;5067914;28;20449;-58
2022/05/03 10:25:42;;;;;;;19.60;2.25;;;15.10;95.30;;;;;;5066885;28;20098;-59
2022/05/03 10:28:08;;;;;;;6.28;1.52;;;15.10;93.80;;;;;;5067132;28;20131;-59
2022/05/03 10:30:38;;;;;;;8.93;2.00;;;15.30;93.10;;;;;;5066785;28;20048;-58
2022/05/03 10:33:35;;;;;;;11.57;1.85;;;15.30;92.40;;;;;;5066511;28;20449;-59
2022/05/03 10:36:02;;;;;;;7.57;1.60;;;15.50;90.70;;;;;;5067060;28;20041;-59
2022/05/03 10:38:39;;;;;;;10.05;1.98;;;15.60;91.70;;;;;;5067937;28;20051;-57
2022/05/03 10:41:05;;;;;;;16.10;2.15;;;15.80;89.30;;;;;;5066728;28;20083;-44
2022/05/03 10:43:33;;;;;;;12.32;2.70;;;16.00;89.80;;;;;;5067616;28;20046;-45
2022/05/03 10:46:13;;;;;;;10.18;1.52;;;16.00;87.90;;;;;;5068601;28;20395;-45
2022/05/03 10:48:43;;;;;;;9.80;2.10;;;16.20;86.80;;;;;;5071599;28;20066;-46
2022/05/03 10:51:15;;;;;;;7.50;0.98;;;16.40;86.00;;;;;;5071601;28;20099;-45
2022/05/03 10:53:41;;;;;;;8.70;1.88;;;16.30;85.60;;;;;;5071263;28;20373;-45
2022/05/03 10:56:16;;;;;;;14.05;1.65;;;16.60;84.40;;;;;;5071605;28;20044;-44
2022/05/03 10:59:05;;;;;;;7.72;1.98;;;16.70;82.10;;;;;;5071539;28;20059;-45
2022/05/03 11:01:33;;;;;;;11.52;2.25;;;16.90;81.00;;;;;;5071079;28;20487;-46
2022/05/03 11:03:58;;;;;;;9.63;2.28;;;17.00;81.40;;;;;;5071347;28;20037;-45
2022/05/03 11:06:27;;;;;;;9.43;2.38;;;17.20;79.70;;;;;;5070815;28;20140;-45
2022/05/03 11:08:59;;;;;;;12.25;1.52;;;17.40;79.10;;;;;;5071146;28;20487;-45
2022/05/03 11:11:47;;;;;;;8.18;1.27;;;17.60;78.00;;;;;;5070865;28;20036;-46
2022/05/03 11:14:16;;;;;;;10.50;1.73;;;17.80;77.20;;;;;;5071376;28;20050;-47
2022/05/03 11:16:50;;;;;;;7.43;1.48;;;17.90;76.30;;;;;;5071255;28;20036;-45
2022/05/03 11:19:20;;;;;;;9.73;2.00;;;18.10;75.70;;;;;;5070240;28;20110;-47
2022/05/03 11:21:48;;;;;;;8.02;1.45;;;18.20;74.70;;;;;;5070821;28;20123;-45
2022/05/03 11:24:18;;;;;;;14.52;1.58;;;18.30;74.50;;;;;;5071577;28;20040;-44
2022/05/03 11:26:44;;;;;;;7.20;1.63;;;18.30;74.40;;;;;;5070877;28;20044;-45
2022/05/03 11:29:12;;;;;;;6.57;1.27;;;18.30;74.30;;;;;;5070794;28;20403;-48
2022/05/03 11:31:38;;;;;;;6.75;1.80;;;18.40;73.00;;;;;;5070719;28;20046;-45
2022/05/03 11:34:06;;;;;;;6.97;1.58;;;18.50;72.60;;;;;;5070951;28;20120;-47
2022/05/03 11:36:33;;;;;;;7.70;2.08;;;18.60;71.80;;;;;;5070618;28;20110;-45
2022/05/03 11:39:02;;;;;;;11.30;1.55;;;18.60;71.50;;;;;;5070251;28;20044;-47
2022/05/03 11:41:28;;;;;;;8.05;1.40;;;18.60;70.40;;;;;;5070634;28;20414;-45
2022/05/03 11:43:55;;;;;;;8.35;2.22;;;18.60;70.50;;;;;;5070312;28;20151;-47
2022/05/03 11:46:23;;;;;;;6.38;1.55;;;18.70;69.50;;;;;;5070680;28;20105;-45
2022/05/03 11:49:01;;;;;;;7.03;1.77;;;18.70;68.80;;;;;;5070078;28;20592;-45
2022/05/03 11:57:11;;;;;;;3.95;1.05;;;18.90;67.90;;;;;;5070438;28;20048;-45
2022/05/03 11:59:39;;;;;;;6.47;0.98;;;18.70;66.00;;;;;;5069654;28;20708;-47
2022/05/03 12:02:13;;;;;;;7.85;1.25;;;18.80;66.70;;;;;;5070240;28;20558;-44
2022/05/03 12:04:39;;;;;;;9.40;1.42;;;18.90;65.80;;;;;;5069918;28;20083;-44
2022/05/03 12:07:04;;;;;;;9.50;1.33;;;19.10;66.30;;;;;;5070383;28;20589;-45
2022/05/03 12:09:39;;;;;;;5.43;1.25;;;19.10;65.20;;;;;;5070282;28;20048;-45
2022/05/03 12:12:42;;;;;;;10.57;1.88;;;19.20;65.10;;;;;;5070493;28;20119;-45
2022/05/03 12:15:18;;;;;;;9.48;1.75;;;19.30;65.40;;;;;;5070023;28;20041;-45
2022/05/03 12:17:55;;;;;;;7.82;1.48;;;19.30;64.70;;;;;;5070078;28;20033;-47
2022/05/03 12:20:21;;;;;;;8.45;1.30;;;19.30;64.30;;;;;;5069292;28;20046;-46
2022/05/03 12:23:14;;;;;;;8.82;1.45;;;19.60;65.10;;;;;;5069746;28;20119;-46
2022/05/03 12:25:41;;;;;;;11.25;1.27;;;19.90;61.60;;;;;;5069481;28;20040;-46
2022/05/03 12:28:07;;;;;;;9.30;1.67;;;20.10;63.60;;;;;;5070354;28;20251;-46
2022/05/03 12:30:35;;;;;;;5.70;1.38;;;20.20;63.80;;;;;;5069168;28;20048;-45
2022/05/03 12:33:07;;;;;;;5.55;1.33;;;20.20;63.10;;;;;;5069991;28;20079;-44
2022/05/03 12:35:35;;;;;;;7.53;1.20;;;20.10;62.40;;;;;;5069618;28;20487;-45
2022/05/03 12:38:18;;;;;;;6.10;1.00;;;19.80;62.80;;;;;;5069903;28;20044;-45
2022/05/03 12:40:56;;;;;;;7.55;1.40;;;19.70;63.00;;;;;;5069296;28;20437;-45
2022/05/03 12:43:26;;;;;;;6.55;1.30;;;19.60;62.90;;;;;;5069626;28;20438;-45
2022/05/03 12:46:04;;;;;;;5.47;1.00;;;19.60;62.50;;;;;;5069417;28;20051;-45
2022/05/03 12:48:33;;;;;;;5.38;1.10;;;19.40;60.20;;;;;;5069494;28;20048;-49
2022/05/03 12:51:00;;;;;;;6.95;1.73;;;19.50;61.50;;;;;;5069476;28;20407;-45
2022/05/03 12:53:29;;;;;;;4.90;0.98;;;19.40;61.50;;;;;;5069551;28;20047;-46
2022/05/03 12:55:56;;;;;;;7.45;0.80;;;19.40;61.80;;;;;;5069543;28;20078;-45
2022/05/03 12:58:24;;;;;;;4.70;0.98;;;19.40;61.80;;;;;;5069278;28;20562;-45
2022/05/03 13:00:53;;;;;;;7.40;1.20;;;19.30;61.30;;;;;;5069712;28;20040;-46
2022/05/03 13:03:23;;;;;;;6.25;1.08;;;19.10;61.30;;;;;;5084877;28;20032;-47
2022/05/03 13:05:50;;;;;;;10.18;1.52;;;19.10;62.20;;;;;;5069401;28;20049;-46
2022/05/03 13:08:17;;;;;;;6.03;0.77;;;18.80;61.80;;;;;;5069762;28;20044;-47
2022/05/03 13:10:43;;;;;;;8.20;1.02;;;18.60;61.20;;;;;;5069034;28;20666;-46
2022/05/03 13:13:09;;;;;;;4.50;0.85;;;18.40;62.00;;;;;;5069695;28;20044;-47
2022/05/03 13:15:34;;;;;;;33.63;3.35;;;18.30;62.30;;;;;;5069518;28;20037;-45
2022/05/03 13:18:00;;;;;;;7.63;1.10;;;18.50;63.20;;;;;;5069092;28;20036;-44
2022/05/03 13:20:27;;;;;;;7.55;1.00;;;18.30;63.50;;;;;;5068907;28;20040;-46
2022/05/03 13:22:54;;;;;;;6.90;1.13;;;18.30;63.60;;;;;;5069428;28;20036;-46
2022/05/03 13:25:20;;;;;;;6.50;1.27;;;18.30;64.30;;;;;;5069489;28;20051;-46
2022/05/03 13:27:46;;;;;;;5.32;1.23;;;18.40;65.00;;;;;;5069342;28;20086;-45
2022/05/03 13:30:12;;;;;;;8.55;1.20;;;18.40;64.20;;;;;;5069433;28;20368;-45
2022/05/03 13:32:38;;;;;;;5.40;1.88;;;18.30;63.70;;;;;;5069318;28;20044;-46
2022/05/03 13:35:04;;;;;;;9.15;1.83;;;18.20;63.80;;;;;;5069303;28;20070;-46
2022/05/03 13:40:28;;;;;;;6.82;1.30;;;18.00;62.70;;;;;;5069660;28;20151;-49
2022/05/03 13:42:58;;;;;;;10.85;1.17;;;17.90;63.00;;;;;;5068740;28;20052;-46